createdAt,value
2022-10-15T00:48:10.891Z,18.36000061
2022-10-15T00:48:50.887Z,18.35000038
2022-10-15T00:49:57.978Z,18.15999985
2022-10-15T00:50:54.434Z,17.81999969
2022-10-15T00:51:56.559Z,17.51000023
2022-10-15T00:52:51.665Z,17.25
2022-10-15T00:53:51.023Z,17
2022-10-15T00:54:49.282Z,16.78000069
2022-10-15T00:56:47.527Z,16.38999939
2022-10-15T00:57:41.252Z,16.23999977
2022-10-15T00:58:40.160Z,16.09000015
2022-10-15T00:59:33.600Z,15.94999981
2022-10-15T01:00:31.831Z,15.85999966
2022-10-15T01:01:28.110Z,15.75
2022-10-15T01:02:27.801Z,15.64999962
2022-10-15T01:03:28.622Z,15.55000019
2022-10-15T01:04:28.135Z,15.47999954
2022-10-15T01:05:18.556Z,15.40999985
2022-10-15T01:06:15.089Z,15.35999966
2022-10-15T01:07:14.045Z,15.30000019
2022-10-15T01:08:10.002Z,15.23999977
2022-10-15T01:09:13.825Z,15.21000004
2022-10-15T01:10:05.604Z,15.15999985
2022-10-15T01:11:06.358Z,15.11999989
2022-10-15T01:11:56.727Z,15.07999992
2022-10-15T01:12:52.835Z,15.05000019
2022-10-15T01:13:47.354Z,15
2022-10-15T01:14:50.573Z,14.96000004
2022-10-15T01:16:46.403Z,14.89000034
2022-10-15T01:17:45.765Z,14.84000015
2022-10-15T01:19:23.167Z,14.93999958
2022-10-15T01:21:37.633Z,15.40999985
2022-10-15T01:22:21.149Z,15.47000027
2022-10-15T01:23:21.259Z,15.43000031
2022-10-15T01:24:17.943Z,15.40999985
2022-10-15T01:25:13.137Z,15.35999966
2022-10-15T01:26:11.299Z,15.27000046
2022-10-15T01:27:05.847Z,15.18999958
2022-10-15T01:28:07.322Z,15.10000038
2022-10-15T01:29:02.411Z,15.02999973
2022-10-15T01:29:59.426Z,14.97000027
2022-10-15T01:31:51.201Z,14.86999989
2022-10-15T01:32:54.363Z,14.78999996
2022-10-15T01:33:53.980Z,14.76000023
2022-10-15T01:34:48.587Z,14.71000004
2022-10-15T01:36:43.759Z,14.64999962
2022-10-15T01:37:42.460Z,14.61999989
2022-10-15T01:38:36.797Z,14.60000038
2022-10-15T01:39:39.772Z,14.56000042
2022-10-15T01:40:35.201Z,14.56000042
2022-10-15T01:41:37.505Z,14.52999973
2022-10-15T01:42:30.625Z,14.52000046
2022-10-15T01:43:29.423Z,14.51000023
2022-10-15T01:44:25.143Z,14.47999954
2022-10-15T01:45:27.403Z,14.44999981
2022-10-15T01:47:21.153Z,14.5
2022-10-15T01:48:15.648Z,14.52000046
2022-10-15T01:49:17.941Z,14.52999973
2022-10-15T01:50:14.462Z,14.5
2022-10-15T01:51:14.154Z,14.48999977
2022-10-15T01:52:10.392Z,14.43999958
2022-10-15T01:53:09.610Z,14.40999985
2022-10-15T01:54:10.266Z,14.38000011
2022-10-15T01:55:01.175Z,14.35999966
2022-10-15T01:56:05.982Z,14.35000038
2022-10-15T01:56:56.738Z,14.32999992
2022-10-15T01:57:55.156Z,14.31000042
2022-10-15T01:58:48.596Z,14.27999973
2022-10-15T01:59:46.533Z,14.26000023
2022-10-15T02:00:44.692Z,14.25
2022-10-15T02:01:47.474Z,14.23999977
2022-10-15T02:02:40.079Z,14.22999954
2022-10-15T02:03:42.036Z,14.25
2022-10-15T02:04:35.295Z,14.23999977
2022-10-15T02:06:29.469Z,14.21000004
2022-10-15T02:07:25.219Z,14.19999981
2022-10-15T02:08:57.193Z,14.21000004
2022-10-15T02:09:43.493Z,14.22999954
2022-10-15T02:10:41.925Z,14.25
2022-10-15T02:11:45.585Z,14.26000023
2022-10-15T02:12:41.225Z,14.25
2022-10-15T02:13:40.855Z,14.23999977
2022-10-15T02:14:37.915Z,14.23999977
2022-10-15T02:15:37.819Z,14.22000027
2022-10-15T02:16:35.032Z,14.22000027
2022-10-15T02:17:36.857Z,14.19999981
2022-10-15T02:18:39.779Z,14.18999958
2022-10-15T02:19:41.623Z,14.15999985
2022-10-15T02:21:37.551Z,14.15999985
2022-10-15T02:22:37.404Z,14.14000034
2022-10-15T02:23:33.037Z,14.13000011
2022-10-15T02:24:37.237Z,14.13000011
2022-10-15T02:25:30.185Z,14.13000011
2022-10-15T02:27:26.729Z,14.14000034
2022-10-15T02:28:33.042Z,14.10999966
2022-10-15T02:29:29.315Z,14.11999989
2022-10-15T02:30:30.035Z,14.11999989
2022-10-15T02:31:25.528Z,14.10999966
2022-10-15T02:32:27.223Z,14.07999992
2022-10-15T02:33:28.973Z,14.07999992
2022-10-15T02:34:30.117Z,14.07999992
2022-10-15T02:35:41.445Z,14.09000015
2022-10-15T02:36:42.082Z,14.07999992
2022-10-15T02:37:47.006Z,14.06000042
2022-10-15T02:38:45.148Z,14.06000042
2022-10-15T02:39:47.597Z,14.06000042
2022-10-15T02:40:40.353Z,14.06000042
2022-10-15T02:41:42.180Z,14.03999996
2022-10-15T02:42:42.752Z,14.03999996
2022-10-15T02:43:35.934Z,14.03999996
2022-10-15T02:44:38.125Z,14.05000019
2022-10-15T02:46:33.266Z,14.05000019
2022-10-15T02:47:32.797Z,14.03999996
2022-10-15T02:49:10.137Z,14.02999973
2022-10-15T02:49:37.579Z,14.07999992
2022-10-15T02:51:36.056Z,14.22000027
2022-10-15T02:52:36.169Z,14.21000004
2022-10-15T02:53:34.331Z,14.19999981
2022-10-15T02:54:34.275Z,14.18000031
2022-10-15T02:55:30.842Z,14.17000008
2022-10-15T02:57:33.287Z,14.14000034
2022-10-15T02:58:35.126Z,14.14999962
2022-10-15T02:59:40.604Z,14.18000031
2022-10-15T03:01:43.175Z,14.13000011
2022-10-15T03:02:43.889Z,14.10999966
2022-10-15T03:03:39.819Z,14.09000015
2022-10-15T03:04:39.727Z,14.06000042
2022-10-15T03:05:41.662Z,14.03999996
2022-10-15T03:06:41.092Z,14.02000046
2022-10-15T03:07:39.261Z,14.02000046
2022-10-15T03:08:44.278Z,14.01000023
2022-10-15T03:09:41.895Z,14
2022-10-15T03:11:42.241Z,13.96000004
2022-10-15T03:12:40.460Z,13.94999981
2022-10-15T03:13:42.509Z,13.94999981
2022-10-15T03:14:40.144Z,13.93000031
2022-10-15T03:16:38.959Z,13.94999981
2022-10-15T03:17:40.127Z,13.97999954
2022-10-15T03:18:45.785Z,13.97999954
2022-10-15T03:19:41.213Z,13.94999981
2022-10-15T03:21:36.514Z,13.97000027
2022-10-15T03:22:38.324Z,13.97000027
2022-10-15T03:23:36.469Z,13.94999981
2022-10-15T03:24:41.303Z,13.93999958
2022-10-15T03:25:46.489Z,13.92000008
2022-10-15T03:26:40.758Z,13.93000031
2022-10-15T03:27:43.086Z,13.92000008
2022-10-15T03:29:38.197Z,14.02000046
2022-10-15T03:30:17.628Z,14.05000019
2022-10-15T03:31:19.005Z,14.10000038
2022-10-15T03:32:16.574Z,14.09000015
2022-10-15T03:33:14.716Z,14.06000042
2022-10-15T03:34:20.429Z,14.02999973
2022-10-15T03:35:16.231Z,14.01000023
2022-10-15T03:36:24.869Z,13.97999954
2022-10-15T03:37:22.110Z,13.96000004
2022-10-15T03:38:20.060Z,13.94999981
2022-10-15T03:39:23.989Z,13.94999981
2022-10-15T03:40:24.972Z,13.93999958
2022-10-15T03:42:18.769Z,13.93999958
2022-10-15T03:43:18.517Z,13.93999958
2022-10-15T03:44:13.667Z,13.93000031
2022-10-15T03:45:21.108Z,13.90999985
2022-10-15T03:47:11.062Z,13.89999962
2022-10-15T03:48:09.937Z,13.90999985
2022-10-15T03:49:05.829Z,13.89000034
2022-10-15T03:50:06.944Z,13.86999989
2022-10-15T03:51:59.831Z,13.88000011
2022-10-15T03:53:02.525Z,13.88000011
2022-10-15T03:54:00.225Z,13.88000011
2022-10-15T03:55:05.789Z,13.88000011
2022-10-15T03:55:57.759Z,13.89999962
2022-10-15T03:57:01.613Z,13.89999962
2022-10-15T03:57:56.394Z,13.89999962
2022-10-15T03:59:01.078Z,13.89000034
2022-10-15T03:59:54.413Z,13.89999962
2022-10-15T04:01:40.753Z,13.97999954
2022-10-15T04:02:23.163Z,14.02000046
2022-10-15T04:03:23.427Z,14.06000042
2022-10-15T04:04:20.981Z,14.02999973
2022-10-15T04:05:27.525Z,13.98999977
2022-10-15T04:07:23.462Z,13.93999958
2022-10-15T04:08:22.707Z,13.92000008
2022-10-15T04:09:24.819Z,13.89000034
2022-10-15T04:10:17.084Z,13.89000034
2022-10-15T04:11:17.964Z,13.89999962
2022-10-15T04:12:13.612Z,13.90999985
2022-10-15T04:13:10.632Z,13.89000034
2022-10-15T04:14:13.777Z,13.88000011
2022-10-15T04:15:08.210Z,13.88000011
2022-10-15T04:17:10.809Z,13.86999989
2022-10-15T04:18:12.337Z,13.90999985
2022-10-15T04:19:11.777Z,13.93000031
2022-10-15T04:20:07.562Z,13.94999981
2022-10-15T04:22:07.587Z,13.94999981
2022-10-15T04:23:07.075Z,13.92000008
2022-10-15T04:24:02.471Z,13.89999962
2022-10-15T04:25:05.909Z,13.92000008
2022-10-15T04:26:16.499Z,13.93000031
2022-10-15T04:28:13.280Z,13.89000034
2022-10-15T04:29:15.068Z,13.89000034
2022-10-15T04:30:09.313Z,13.89000034
2022-10-15T04:32:08.803Z,13.85000038
2022-10-15T04:33:53.012Z,13.92000008
2022-10-15T04:34:37.724Z,13.98999977
2022-10-15T04:36:35.105Z,14.02000046
2022-10-15T04:37:34.450Z,14.01000023
2022-10-15T04:38:34.143Z,13.98999977
2022-10-15T04:39:29.453Z,13.96000004
2022-10-15T04:40:34.427Z,13.98999977
2022-10-15T04:41:39.349Z,14.03999996
2022-10-15T04:42:34.492Z,14.07999992
2022-10-15T04:43:35.286Z,14.09000015
2022-10-15T04:44:29.696Z,14.10000038
2022-10-15T04:45:31.155Z,14.06000042
2022-10-15T04:47:27.010Z,14.03999996
2022-10-15T04:48:23.685Z,14.01000023
2022-10-15T04:49:25.711Z,13.97999954
2022-10-15T04:50:21.760Z,13.97999954
2022-10-15T04:52:20.772Z,13.96000004
2022-10-15T04:53:20.252Z,13.97000027
2022-10-15T04:54:15.544Z,13.96000004
2022-10-15T04:55:13.796Z,13.94999981
2022-10-15T04:57:17.997Z,13.93999958
2022-10-15T04:58:11.604Z,13.93999958
2022-10-15T04:59:10.364Z,13.94999981
2022-10-15T05:00:11.843Z,13.93000031
2022-10-15T05:01:08.130Z,13.94999981
2022-10-15T05:02:10.477Z,13.94999981
2022-10-15T05:03:04.939Z,13.94999981
2022-10-15T05:04:06.434Z,13.96000004
2022-10-15T05:05:00.612Z,13.96000004
2022-10-15T05:06:00.401Z,13.97999954
2022-10-15T05:07:03.472Z,13.93999958
2022-10-15T05:07:58.376Z,13.93999958
2022-10-15T05:09:01.954Z,13.92000008
2022-10-15T05:10:02.951Z,13.90999985
2022-10-15T05:11:06.950Z,13.92000008
2022-10-15T05:12:03.894Z,13.89000034
2022-10-15T05:13:38.215Z,14.05000019
2022-10-15T05:16:03.048Z,14.60999966
2022-10-15T05:16:43.016Z,14.68000031
2022-10-15T05:17:41.153Z,14.68999958
2022-10-15T05:18:39.487Z,14.61999989
2022-10-15T05:19:34.815Z,14.53999996
2022-10-15T05:20:34.991Z,14.43999958
2022-10-15T05:22:26.846Z,14.31000042
2022-10-15T05:23:33.997Z,14.27000046
2022-10-15T05:24:33.902Z,14.23999977
2022-10-15T05:25:29.434Z,14.19999981
2022-10-15T05:27:26.698Z,14.14000034
2022-10-15T05:28:26.435Z,14.13000011
2022-10-15T05:29:23.728Z,14.10999966
2022-10-15T05:30:25.799Z,14.10999966
2022-10-15T05:31:22.442Z,14.10000038
2022-10-15T05:32:15.981Z,14.07999992
2022-10-15T05:33:18.724Z,14.05000019
2022-10-15T05:34:09.657Z,14.02999973
2022-10-15T05:35:08.699Z,14.03999996
2022-10-15T05:36:04.298Z,14.05000019
2022-10-15T05:37:02.360Z,14.01000023
2022-10-15T05:37:55.970Z,14.01000023
2022-10-15T05:39:02.339Z,14.01000023
2022-10-15T05:40:00.604Z,14
2022-10-15T05:41:52.673Z,13.98999977
2022-10-15T05:43:44.552Z,13.98999977
2022-10-15T05:44:45.294Z,13.98999977
2022-10-15T05:45:38.361Z,14
2022-10-15T05:46:40.909Z,14.02000046
2022-10-15T05:47:43.124Z,14.01000023
2022-10-15T05:48:44.324Z,14
2022-10-15T05:49:37.607Z,14.01000023
2022-10-15T05:50:43.091Z,14
2022-10-15T05:51:40.997Z,13.97999954
2022-10-15T05:52:38.867Z,13.96000004
2022-10-15T05:53:42.913Z,13.93000031
2022-10-15T05:54:36.344Z,13.92000008
2022-10-15T05:55:39.109Z,13.93000031
2022-10-15T05:56:29.975Z,13.92000008
2022-10-15T05:57:32.759Z,13.93000031
2022-10-15T05:58:25.719Z,13.93000031
2022-10-15T06:00:24.256Z,14.05000019
2022-10-15T06:01:05.743Z,14.10999966
2022-10-15T06:02:07.098Z,14.15999985
2022-10-15T06:03:05.633Z,14.14999962
2022-10-15T06:04:05.010Z,14.11999989
2022-10-15T06:05:04.066Z,14.07999992
2022-10-15T06:06:59.381Z,14.02999973
2022-10-15T06:08:00.071Z,14.02999973
2022-10-15T06:08:55.247Z,14
2022-10-15T06:09:54.086Z,13.97999954
2022-10-15T06:10:49.811Z,13.97999954
2022-10-15T06:11:54.913Z,13.96000004
2022-10-15T06:12:50.577Z,13.93999958
2022-10-15T06:13:55.116Z,13.92000008
2022-10-15T06:14:47.772Z,13.93000031
2022-10-15T06:16:50.454Z,13.93000031
2022-10-15T06:17:42.879Z,13.92000008
2022-10-15T06:18:44.841Z,13.93999958
2022-10-15T06:19:37.897Z,13.93999958
2022-10-15T06:20:37.412Z,13.94999981
2022-10-15T06:21:32.685Z,13.96000004
2022-10-15T06:22:32.652Z,13.94999981
2022-10-15T06:23:27.947Z,13.93999958
2022-10-15T06:24:28.671Z,13.93000031
2022-10-15T06:25:21.428Z,13.93999958
2022-10-15T06:27:20.222Z,13.93000031
2022-10-15T06:28:19.747Z,13.92000008
2022-10-15T06:29:20.836Z,13.92000008
2022-10-15T06:30:16.227Z,13.92000008
2022-10-15T06:31:21.839Z,13.92000008
2022-10-15T06:32:13.605Z,13.93000031
2022-10-15T06:33:16.721Z,13.90999985
2022-10-15T06:34:08.531Z,13.92000008
2022-10-15T06:35:08.434Z,13.93999958
2022-10-15T06:36:03.641Z,13.97999954
2022-10-15T06:37:08.310Z,13.98999977
2022-10-15T06:38:03.116Z,13.97999954
2022-10-15T06:39:02.938Z,13.96000004
2022-10-15T06:40:02.702Z,13.97999954
2022-10-15T06:41:53.371Z,13.97999954
2022-10-15T06:42:54.427Z,13.97999954
2022-10-15T06:44:18.916Z,13.96000004
2022-10-15T06:45:00.488Z,13.97000027
2022-10-15T06:46:00.133Z,14
2022-10-15T06:46:58.864Z,13.98999977
2022-10-15T06:47:58.408Z,13.96000004
2022-10-15T06:48:54.182Z,13.97000027
2022-10-15T06:49:53.896Z,13.93999958
2022-10-15T06:50:51.034Z,13.94999981
2022-10-15T06:51:50.483Z,13.94999981
2022-10-15T06:52:45.891Z,13.92000008
2022-10-15T06:53:47.843Z,13.93000031
2022-10-15T06:54:41.934Z,13.93000031
2022-10-15T06:56:03.101Z,13.93999958
2022-10-15T06:57:01.304Z,13.96000004
2022-10-15T06:58:02.664Z,13.96000004
2022-10-15T06:58:57.826Z,13.93000031
2022-10-15T06:59:57.676Z,13.93999958
2022-10-15T07:00:53.091Z,13.93999958
2022-10-15T07:02:01.422Z,13.93000031
2022-10-15T07:02:53.983Z,13.93000031
2022-10-15T07:03:54.659Z,13.93999958
2022-10-15T07:04:51.731Z,13.93999958
2022-10-15T07:06:47.168Z,13.93999958
2022-10-15T07:07:47.420Z,13.93999958
2022-10-15T07:08:48.976Z,13.94999981
2022-10-15T07:09:41.813Z,13.97000027
2022-10-15T07:11:37.559Z,13.97999954
2022-10-15T07:12:37.389Z,14.01000023
2022-10-15T07:13:34.452Z,14.02000046
2022-10-15T07:14:34.883Z,14.02000046
2022-10-15T07:15:29.628Z,14.02999973
2022-10-15T07:16:29.959Z,14.05000019
2022-10-15T07:17:29.185Z,14.06000042
2022-10-15T07:19:07.602Z,14.22000027
2022-10-15T07:20:06.850Z,14.52000046
2022-10-15T07:22:02.851Z,14.84000015
2022-10-15T07:23:04.239Z,14.81000042
2022-10-15T07:23:59.723Z,14.68999958
2022-10-15T07:25:00.031Z,14.64000034
2022-10-15T07:26:24.143Z,14.56999969
2022-10-15T07:27:08.048Z,14.53999996
2022-10-15T07:27:18.650Z,14.53999996
2022-10-15T07:27:20.869Z,14.53999996
2022-10-15T07:28:05.899Z,14.55000019
2022-10-15T07:29:04.208Z,14.61999989
2022-10-15T07:30:00.569Z,14.64000034
2022-10-15T07:31:00.474Z,14.60999966
2022-10-15T07:31:56.048Z,14.55000019
2022-10-15T07:32:56.359Z,14.51000023
2022-10-15T07:33:52.734Z,14.44999981
2022-10-15T07:34:56.238Z,14.43999958
2022-10-15T07:36:54.818Z,14.35000038
2022-10-15T07:37:53.443Z,14.35000038
2022-10-15T07:38:57.403Z,14.34000015
2022-10-15T07:39:50.948Z,14.35000038
2022-10-15T07:41:46.396Z,14.35000038
2022-10-15T07:42:48.978Z,14.35999966
2022-10-15T07:43:41.667Z,14.38000011
2022-10-15T07:44:42.755Z,14.39999962
2022-10-15T07:46:41.138Z,14.47999954
2022-10-15T07:47:33.813Z,14.48999977
2022-10-15T07:48:38.088Z,14.48999977
2022-10-15T07:49:32.483Z,14.47999954
2022-10-15T07:50:36.235Z,14.47999954
2022-10-15T07:52:33.889Z,14.5
2022-10-15T07:53:35.955Z,14.5
2022-10-15T07:54:30.180Z,14.48999977
2022-10-15T07:55:29.153Z,14.47999954
2022-10-15T07:57:25.614Z,14.5
2022-10-15T07:58:20.901Z,14.47999954
2022-10-15T07:59:20.540Z,14.47999954
2022-10-15T08:00:15.771Z,14.47000027
2022-10-15T08:02:10.753Z,14.48999977
2022-10-15T08:03:10.638Z,14.52000046
2022-10-15T08:04:05.978Z,14.52000046
2022-10-15T08:05:06.156Z,14.53999996
2022-10-15T08:06:02.205Z,14.57999992
2022-10-15T08:07:01.961Z,14.59000015
2022-10-15T08:07:57.126Z,14.60999966
2022-10-15T08:09:34.211Z,14.68000031
2022-10-15T08:10:14.143Z,14.75
2022-10-15T08:12:11.314Z,14.78999996
2022-10-15T08:13:06.654Z,14.82999992
2022-10-15T08:14:05.875Z,14.81999969
2022-10-15T08:15:01.028Z,14.81999969
2022-10-15T08:16:01.248Z,14.82999992
2022-10-15T08:17:38.644Z,14.90999985
2022-10-15T08:18:18.894Z,14.98999977
2022-10-15T08:19:17.200Z,15.06000042
2022-10-15T08:20:17.553Z,15.07999992
2022-10-15T08:21:13.078Z,15.06000042
2022-10-15T08:22:12.956Z,15.06999969
2022-10-15T08:23:47.449Z,15.10000038
2022-10-15T08:24:27.318Z,15.13000011
2022-10-15T08:26:34.886Z,15.18999958
2022-10-15T08:26:41.826Z,15.23999977
2022-10-15T08:27:42.378Z,15.40999985
2022-10-15T08:28:38.861Z,15.43000031
2022-10-15T08:29:38.224Z,15.43000031
2022-10-15T08:30:33.394Z,15.38000011
2022-10-15T08:31:33.484Z,15.35999966
2022-10-15T08:32:28.739Z,15.32999992
2022-10-15T08:33:28.506Z,15.31999969
2022-10-15T08:34:23.854Z,15.31000042
2022-10-15T08:35:23.625Z,15.27999973
2022-10-15T08:37:21.286Z,15.27999973
2022-10-15T08:38:17.496Z,15.26000023
2022-10-15T08:38:19.947Z,15.26000023
2022-10-15T08:39:14.914Z,15.21000004
2022-10-15T08:40:11.231Z,15.27000046
2022-10-15T08:42:12.222Z,15.46000004
2022-10-15T08:43:09.361Z,15.57999992
2022-10-15T08:44:11.542Z,15.68000031
2022-10-15T08:45:08.894Z,15.78999996
2022-10-15T08:46:13.729Z,15.89999962
2022-10-15T08:47:08.975Z,15.97000027
2022-10-15T08:48:09.451Z,16.04999924
2022-10-15T08:49:10.190Z,16.12999916
2022-10-15T08:50:06.705Z,16.18000031
2022-10-15T08:52:06.163Z,16.18000031
2022-10-15T08:53:06.892Z,16.20000076
2022-10-15T08:54:03.232Z,16.20999908
2022-10-15T08:55:06.647Z,16.23999977
2022-10-15T08:57:03.737Z,16.22999954
2022-10-15T08:57:57.998Z,16.21999931
2022-10-15T08:59:00.651Z,16.20999908
2022-10-15T08:59:54.954Z,16.21999931
2022-10-15T09:00:57.619Z,16.19000053
2022-10-15T09:01:51.917Z,16.20000076
2022-10-15T09:02:50.506Z,16.20999908
2022-10-15T09:03:49.721Z,16.20000076
2022-10-15T09:04:46.109Z,16.19000053
2022-10-15T09:05:46.460Z,16.13999939
2022-10-15T09:06:41.969Z,16.12999916
2022-10-15T09:07:44.662Z,16.09000015
2022-10-15T09:08:40.210Z,15.97999954
2022-10-15T09:09:37.731Z,15.96000004
2022-10-15T09:10:37.753Z,15.93000031
2022-10-15T09:12:35.542Z,15.89999962
2022-10-15T09:14:10.342Z,15.97999954
2022-10-15T09:16:24.714Z,16.14999962
2022-10-15T09:17:07.503Z,16.18000031
2022-10-15T09:18:06.669Z,16.21999931
2022-10-15T09:19:06.090Z,16.20999908
2022-10-15T09:20:01.835Z,16.20000076
2022-10-15T09:21:02.202Z,16.18000031
2022-10-15T09:21:57.668Z,16.19000053
2022-10-15T09:22:58.057Z,16.19000053
2022-10-15T09:23:53.552Z,16.19000053
2022-10-15T09:24:54.062Z,16.19000053
2022-10-15T09:26:50.897Z,16.20999908
2022-10-15T09:27:47.287Z,16.26000023
2022-10-15T09:28:47.543Z,16.28000069
2022-10-15T09:29:43.268Z,16.30999947
2022-10-15T09:31:40.461Z,16.29999924
2022-10-15T09:32:38.303Z,16.29000092
2022-10-15T09:33:39.297Z,16.32999992
2022-10-15T09:34:34.883Z,16.31999969
2022-10-15T13:25:15.867Z,20.29999924
2022-10-15T13:26:17.745Z,20.06999969
2022-10-15T13:27:14.607Z,19.87999916
2022-10-15T13:28:16.362Z,19.69000053
2022-10-15T13:29:12.927Z,19.51000023
2022-10-15T13:30:16.984Z,19.32999992
2022-10-15T13:32:13.147Z,18.97999954
2022-10-15T13:33:09.726Z,18.85000038
2022-10-15T13:34:10.662Z,18.75
2022-10-15T13:35:07.042Z,18.64999962
2022-10-15T13:36:10.471Z,18.55999947
2022-10-15T13:37:04.819Z,18.47999954
2022-10-15T13:38:05.672Z,18.44000053
2022-10-15T13:39:01.756Z,18.38999939
2022-10-15T13:40:06.596Z,18.31999969
2022-10-15T13:40:08.268Z,18.31999969
2022-10-15T13:41:00.846Z,18.29999924
2022-10-15T13:41:56.622Z,18.25
2022-10-15T13:42:57.172Z,18.22999954
2022-10-15T13:43:54.235Z,18.19000053
2022-10-15T13:45:29.223Z,18.19000053
2022-10-15T13:45:49.252Z,18.26000023
2022-10-15T13:47:47.173Z,18.37999916
2022-10-15T13:49:40.882Z,18.29999924
2022-10-15T13:50:41.133Z,18.27000046
2022-10-15T13:51:36.664Z,18.25
2022-10-15T13:52:36.093Z,18.20000076
2022-10-15T13:53:30.979Z,18.15999985
2022-10-15T13:54:32.748Z,18.12000084
2022-10-15T13:55:29.707Z,18.09000015
2022-10-15T13:57:27.182Z,18.04000092
2022-10-15T13:58:27.702Z,18.03000069
2022-10-15T13:59:21.664Z,18.02000046
2022-10-15T14:00:21.304Z,18
2022-10-15T14:02:13.216Z,17.95999908
2022-10-15T14:03:14.905Z,17.96999931
2022-10-15T14:04:08.314Z,17.94000053
2022-10-15T14:05:10.259Z,17.94000053
2022-10-15T14:06:02.250Z,17.93000031
2022-10-15T14:07:02.411Z,17.95999908
2022-10-15T14:07:57.229Z,17.95000076
2022-10-15T14:08:56.444Z,17.93000031
2022-10-15T14:09:50.885Z,17.93000031
2022-10-15T14:10:52.625Z,17.89999962
2022-10-15T14:12:43.075Z,17.89999962
2022-10-15T14:13:42.300Z,17.89999962
2022-10-15T14:14:39.170Z,17.89999962
2022-10-15T14:15:33.741Z,17.90999985
2022-10-15T14:16:35.697Z,17.92000008
2022-10-15T14:17:28.482Z,17.89999962
2022-10-15T14:18:30.324Z,17.87999916
2022-10-15T14:19:22.572Z,17.88999939
2022-10-15T14:20:27.923Z,17.88999939
2022-10-15T14:22:47.724Z,17.95999908
2022-10-15T14:22:54.782Z,18.02000046
2022-10-15T14:23:54.686Z,18.09000015
2022-10-15T14:24:49.503Z,18.09000015
2022-10-15T14:25:48.506Z,18.06999969
2022-10-15T14:26:43.739Z,18.02000046
2022-10-15T14:27:43.475Z,18
2022-10-15T14:28:38.416Z,17.96999931
2022-10-15T14:29:39.955Z,17.95000076
2022-10-15T14:30:32.433Z,17.93000031
2022-10-15T14:32:26.873Z,17.90999985
2022-10-15T14:33:27.105Z,17.89999962
2022-10-15T14:34:22.318Z,17.87999916
2022-10-15T14:35:21.146Z,17.86000061
2022-10-15T14:36:15.504Z,17.84000015
2022-10-15T14:37:14.678Z,17.84000015
2022-10-15T14:38:09.022Z,17.82999992
2022-10-15T14:39:08.280Z,17.82999992
2022-10-15T14:40:03.551Z,17.79999924
2022-10-15T14:41:04.847Z,17.79999924
2022-10-15T14:41:07.336Z,17.79999924
2022-10-15T14:41:59.861Z,17.81999969
2022-10-15T14:42:55.074Z,17.84000015
2022-10-15T14:43:56.500Z,17.82999992
2022-10-15T14:44:48.535Z,17.85000038
2022-10-15T14:45:54.747Z,17.84000015
2022-10-15T14:46:49.158Z,17.86000061
2022-10-15T14:47:46.781Z,17.84000015
2022-10-15T14:48:48.184Z,17.79000092
2022-10-15T14:49:43.275Z,17.78000069
2022-10-15T14:50:46.166Z,17.78000069
2022-10-15T14:51:43.519Z,17.79000092
2022-10-15T14:52:40.931Z,17.79000092
2022-10-15T14:53:41.120Z,17.79999924
2022-10-15T14:54:36.296Z,17.79999924
2022-10-15T14:55:36.077Z,17.80999947
2022-10-15T14:56:32.352Z,17.82999992
2022-10-15T14:57:32.293Z,17.82999992
2022-10-15T14:58:31.124Z,17.79999924
2022-10-15T15:00:29.299Z,17.85000038
2022-10-15T15:00:55.198Z,17.88999939
2022-10-15T15:01:58.535Z,17.96999931
2022-10-15T15:02:02.895Z,17.96999931
2022-10-15T15:02:55.616Z,17.98999977
2022-10-15T15:03:50.834Z,17.97999954
2022-10-15T15:04:50.149Z,17.95000076
2022-10-15T15:05:45.570Z,17.89999962
2022-10-15T15:06:51.010Z,17.86000061
2022-10-15T15:07:45.545Z,17.81999969
2022-10-15T15:08:44.929Z,17.77000046
2022-10-15T15:09:40.225Z,17.73999977
2022-10-15T15:10:40.267Z,17.70999908
2022-10-15T15:11:34.948Z,17.69000053
2022-10-15T15:12:37.479Z,17.65999985
2022-10-15T15:13:29.963Z,17.62999916
2022-10-15T15:14:30.075Z,17.62000084
2022-10-15T15:15:24.581Z,17.61000061
2022-10-15T15:16:26.206Z,17.59000015
2022-10-15T15:17:21.843Z,17.56999969
2022-10-15T15:18:23.837Z,17.54000092
2022-10-15T15:19:18.068Z,17.54000092
2022-10-15T15:20:16.353Z,17.52000046
2022-10-15T15:21:10.495Z,17.53000069
2022-10-15T15:22:07.149Z,17.48999977
2022-10-15T15:23:09.307Z,17.47999954
2022-10-15T15:24:05.988Z,17.45000076
2022-10-15T15:25:08.338Z,17.44000053
2022-10-15T15:26:00.418Z,17.43000031
2022-10-15T15:27:00.164Z,17.42000008
2022-10-15T15:27:56.231Z,17.44000053
2022-10-15T15:28:59.535Z,17.43000031
2022-10-15T15:29:52.673Z,17.43000031
2022-10-15T15:30:55.179Z,17.39999962
2022-10-15T15:32:46.812Z,17.37999916
2022-10-15T15:33:46.313Z,17.37000084
2022-10-15T15:34:38.963Z,17.37000084
2022-10-15T15:35:41.170Z,17.36000061
2022-10-15T15:37:34.704Z,17.31999969
2022-10-15T15:39:34.420Z,17.27000046
2022-10-15T15:41:01.025Z,17.25
2022-10-15T15:41:41.691Z,17.25
2022-10-15T15:42:45.913Z,17.26000023
2022-10-15T15:43:45.358Z,17.26000023
2022-10-15T15:44:44.976Z,17.21999931
2022-10-15T15:45:41.253Z,17.19000053
2022-10-15T15:46:39.792Z,17.17000008
2022-10-15T15:47:40.960Z,17.12999916
2022-10-15T15:48:38.924Z,17.10000038
2022-10-15T15:49:38.015Z,17.09000015
2022-10-15T15:50:33.666Z,17.09000015
2022-10-15T15:51:33.410Z,17.06999969
2022-10-15T15:52:31.280Z,17.03000069
2022-10-15T15:52:36.269Z,17.03000069
2022-10-15T15:53:28.923Z,17.04000092
2022-10-15T15:54:28.646Z,17.04999924
2022-10-15T15:55:24.845Z,17.04999924
2022-10-15T15:56:24.684Z,17.03000069
2022-10-15T15:57:23.020Z,17.01000023
2022-10-15T15:58:22.868Z,16.98999977
2022-10-15T15:59:18.388Z,16.98999977
2022-10-15T16:00:16.801Z,16.95000076
2022-10-15T16:01:24.983Z,16.94000053
2022-10-15T16:02:18.296Z,16.93000031
2022-10-15T16:03:14.854Z,16.93000031
2022-10-15T16:04:17.115Z,16.92000008
2022-10-15T16:05:11.352Z,16.93000031
2022-10-15T16:06:15.411Z,16.92000008
2022-10-15T16:07:13.192Z,16.92000008
2022-10-15T16:08:11.499Z,16.89999962
2022-10-15T16:09:04.370Z,16.92000008
2022-10-15T16:10:04.890Z,16.89999962
2022-10-15T16:11:00.645Z,16.87999916
2022-10-15T16:12:00.661Z,16.87999916
2022-10-15T16:12:59.893Z,16.87000084
2022-10-15T16:13:59.076Z,16.85000038
2022-10-15T16:14:59.698Z,16.82999992
2022-10-15T16:16:01.561Z,16.81999969
2022-10-15T16:17:57.986Z,16.82999992
2022-10-15T16:19:00.117Z,16.84000015
2022-10-15T16:19:53.609Z,16.81999969